Time;durP1;ratioP1;P1;durP2;ratioP2;P2;SDS_P1;SDS_P2;PMS_P1;PMS_P2;Temp;Humidity;BMP_temperature;BMP_pressure;BME280_temperature;BME280_humidity;BME280_pressure;Samples;Min_cycle;Max_cycle;Signal;HPM_P1;HPM_P2
2022/12/17 13:08:06;;;;;;;80.72;35.47;;;-4.20;99.90;;;;;;4988842;28;19909;-54
2022/12/17 13:10:32;;;;;;;64.22;29.08;;;-4.10;99.90;;;;;;4964117;28;20023;-51
2022/12/17 13:13:09;;;;;;;54.95;28.15;;;-3.90;99.90;;;;;;5003850;28;20105;-56
2022/12/17 13:15:44;;;;;;;56.65;27.33;;;-3.90;99.90;;;;;;5010788;28;20026;-46
2022/12/17 13:18:27;;;;;;;52.67;26.85;;;-3.70;99.90;;;;;;5010070;28;20041;-50
2022/12/17 13:21:24;;;;;;;62.17;27.48;;;-3.50;99.90;;;;;;4985345;28;20494;-52
2022/12/17 13:23:49;;;;;;;57.00;27.42;;;-3.50;99.90;;;;;;5005367;28;20038;-55
2022/12/17 13:26:49;;;;;;;53.50;26.05;;;-3.60;99.90;;;;;;5009993;28;20030;-50
2022/12/17 13:29:26;;;;;;;51.55;24.52;;;-3.60;99.90;;;;;;5002866;28;20053;-55
2022/12/17 13:32:04;;;;;;;59.25;26.77;;;-3.60;99.90;;;;;;5008851;28;20070;-50
2022/12/17 13:34:59;;;;;;;53.60;27.30;;;-3.60;99.90;;;;;;5006840;28;20042;-49
2022/12/17 13:37:33;;;;;;;61.42;28.67;;;-3.60;99.90;;;;;;4993362;28;20026;-52
2022/12/17 13:40:17;;;;;;;54.35;27.25;;;-3.70;99.90;;;;;;5011594;28;20605;-48
2022/12/17 13:42:45;;;;;;;53.17;25.35;;;-3.70;99.90;;;;;;5009684;28;20088;-49
2022/12/17 13:45:16;;;;;;;51.97;26.55;;;-3.80;99.90;;;;;;5011583;28;20048;-50
2022/12/17 13:47:41;;;;;;;52.65;24.33;;;-3.90;99.90;;;;;;5011985;28;20014;-50
2022/12/17 13:50:23;;;;;;;59.15;26.85;;;-4.10;99.90;;;;;;4994472;28;20026;-48
2022/12/17 13:52:48;;;;;;;45.97;24.63;;;-4.20;99.90;;;;;;5011136;28;20097;-52
2022/12/17 13:55:21;;;;;;;45.22;23.83;;;-4.20;99.90;;;;;;5012276;28;20133;-48
2022/12/17 13:57:48;;;;;;;54.95;26.17;;;-4.40;99.90;;;;;;5011916;28;20022;-47
2022/12/17 14:00:32;;;;;;;51.83;24.95;;;-4.40;99.90;;;;;;5011973;28;20109;-52
2022/12/17 14:03:10;;;;;;;55.13;26.15;;;-4.40;99.90;;;;;;5011261;28;20118;-50
2022/12/17 14:05:41;;;;;;;48.40;23.48;;;-4.50;99.90;;;;;;5012503;28;20040;-49
2022/12/17 14:08:07;;;;;;;54.85;24.08;;;-4.60;99.90;;;;;;5011706;28;20029;-47
2022/12/17 14:10:32;;;;;;;47.25;24.85;;;-4.60;99.90;;;;;;5012003;28;20050;-48
2022/12/17 14:13:12;;;;;;;53.47;25.38;;;-4.70;99.90;;;;;;5011326;28;20026;-47
2022/12/17 14:15:37;;;;;;;50.70;23.63;;;-4.70;99.90;;;;;;5012980;28;20038;-48
2022/12/17 14:18:03;;;;;;;56.13;26.55;;;-4.60;99.90;;;;;;5012417;28;20021;-49
2022/12/17 14:20:33;;;;;;;50.42;25.08;;;-4.60;99.90;;;;;;5011926;28;20038;-48
2022/12/17 14:23:20;;;;;;;51.92;24.25;;;-4.60;99.90;;;;;;4993245;28;20069;-53
2022/12/17 14:25:47;;;;;;;57.97;24.33;;;-4.50;99.90;;;;;;5011604;28;20119;-47
2022/12/17 14:28:23;;;;;;;44.58;23.63;;;-4.40;99.90;;;;;;5011174;28;20018;-53
2022/12/17 14:30:50;;;;;;;42.85;22.55;;;-4.30;99.90;;;;;;4993727;28;20105;-47
2022/12/17 14:33:36;;;;;;;52.58;25.27;;;-4.30;99.90;;;;;;5010776;28;20100;-52
2022/12/17 14:36:22;;;;;;;50.70;24.50;;;-4.30;99.90;;;;;;5012532;28;20026;-49
2022/12/17 14:38:50;;;;;;;;;;;-4.40;99.90;;;;;;5015682;28;20030;-53
2022/12/17 14:44:02;;;;;;;50.70;25.55;;;-4.40;99.90;;;;;;5013112;28;20115;-46
2022/12/17 14:46:29;;;;;;;53.58;25.48;;;-4.50;99.90;;;;;;5014931;28;20393;-50
2022/12/17 14:48:59;;;;;;;49.08;25.30;;;-4.50;99.90;;;;;;4997574;28;20030;-53
2022/12/17 14:51:33;;;;;;;52.28;25.02;;;-4.50;99.90;;;;;;5015184;28;20033;-49
2022/12/17 14:54:16;;;;;;;56.70;26.92;;;-4.60;99.90;;;;;;5014197;28;20156;-52
2022/12/17 14:56:42;;;;;;;51.42;26.90;;;-4.60;99.90;;;;;;5015089;28;20513;-53
2022/12/17 14:59:32;;;;;;;55.38;26.05;;;-4.60;99.90;;;;;;4997142;28;20021;-46
2022/12/17 15:02:18;;;;;;;57.17;28.20;;;-4.60;99.90;;;;;;5013861;28;20041;-51
2022/12/17 15:04:43;;;;;;;59.22;30.13;;;-4.70;99.90;;;;;;4997246;28;20033;-49
2022/12/17 15:07:16;;;;;;;68.80;28.92;;;-4.80;99.90;;;;;;5014827;28;20124;-52
2022/12/17 15:09:42;;;;;;;65.30;28.67;;;-4.80;99.90;;;;;;4981490;28;20022;-52
2022/12/17 15:12:08;;;;;;;61.85;29.15;;;-4.80;99.90;;;;;;5013892;28;20076;-48
2022/12/17 15:14:34;;;;;;;58.42;29.35;;;-4.80;99.90;;;;;;5014505;28;20026;-52
2022/12/17 15:17:00;;;;;;;62.30;30.23;;;-4.80;99.90;;;;;;5014525;28;20573;-52
2022/12/17 15:19:25;;;;;;;64.10;28.27;;;-4.70;99.90;;;;;;5014320;28;20022;-52
2022/12/17 15:21:51;;;;;;;59.40;28.30;;;-4.70;99.90;;;;;;5013954;28;20065;-53
2022/12/17 15:24:19;;;;;;;59.78;30.23;;;-4.60;99.90;;;;;;4996683;28;20033;-50
2022/12/17 15:26:46;;;;;;;80.72;34.78;;;-4.60;99.90;;;;;;4996569;28;20025;-51
2022/12/17 15:29:11;;;;;;;64.63;30.70;;;-4.60;99.90;;;;;;5014288;28;20397;-48
2022/12/17 15:31:37;;;;;;;64.13;30.95;;;-4.60;99.90;;;;;;5014182;28;20022;-51
2022/12/17 15:34:03;;;;;;;63.92;31.75;;;-4.60;99.90;;;;;;5013766;28;20104;-50
2022/12/17 15:36:30;;;;;;;55.65;27.15;;;-4.70;99.90;;;;;;4996680;28;20057;-53
2022/12/17 15:38:56;;;;;;;74.03;30.90;;;-4.70;99.90;;;;;;4996832;28;20026;-49
2022/12/17 15:44:06;;;;;;;65.85;30.02;;;-4.70;99.90;;;;;;5013496;28;20041;-50
2022/12/17 15:46:32;;;;;;;64.65;30.38;;;-4.70;99.90;;;;;;5012462;28;20022;-47
2022/12/17 15:48:57;;;;;;;65.45;31.38;;;-4.60;99.90;;;;;;5013965;28;20022;-49
2022/12/17 15:51:23;;;;;;;65.22;29.55;;;-4.60;99.90;;;;;;4996298;28;20453;-48
2022/12/17 15:53:49;;;;;;;69.38;32.35;;;-4.60;99.90;;;;;;5013161;28;20375;-47
2022/12/17 15:56:20;;;;;;;60.60;29.90;;;-4.60;99.90;;;;;;5014203;28;20022;-45
2022/12/17 15:58:46;;;;;;;59.78;28.25;;;-4.50;99.90;;;;;;5010915;28;20060;-48
2022/12/17 16:01:11;;;;;;;61.63;29.02;;;-4.40;99.90;;;;;;5010481;28;20014;-50
2022/12/17 16:03:37;;;;;;;58.53;28.67;;;-4.30;99.90;;;;;;5009907;28;20088;-52
2022/12/17 16:06:03;;;;;;;59.15;29.90;;;-4.50;99.90;;;;;;4992936;28;20033;-49
2022/12/17 16:08:28;;;;;;;56.65;26.67;;;-4.50;99.90;;;;;;4992605;28;20243;-52
2022/12/17 16:10:54;;;;;;;60.92;27.08;;;-4.40;99.90;;;;;;5009874;28;20022;-51
2022/12/17 16:13:19;;;;;;;62.08;29.98;;;-4.50;99.90;;;;;;5009414;28;20037;-51
2022/12/17 16:15:45;;;;;;;62.78;29.95;;;-4.40;99.90;;;;;;4992288;28;20053;-48
2022/12/17 16:18:10;;;;;;;61.90;30.38;;;-4.40;99.90;;;;;;5009945;28;20038;-46
2022/12/17 16:20:36;;;;;;;58.95;28.70;;;-4.40;99.90;;;;;;4992149;28;20358;-51
2022/12/17 16:23:01;;;;;;;61.95;29.23;;;-4.50;99.90;;;;;;5008707;28;20029;-50
2022/12/17 16:25:27;;;;;;;54.67;26.27;;;-4.50;99.90;;;;;;4992211;28;20125;-51
2022/12/17 16:27:52;;;;;;;59.83;27.30;;;-4.60;99.90;;;;;;5010007;28;20105;-50
2022/12/17 16:30:18;;;;;;;60.47;29.05;;;-4.60;99.90;;;;;;5009650;28;20030;-52
2022/12/17 16:32:43;;;;;;;65.53;29.75;;;-4.60;99.90;;;;;;5009111;28;20044;-52
2022/12/17 16:35:09;;;;;;;69.22;32.50;;;-4.60;99.90;;;;;;4991922;28;20029;-51
2022/12/17 16:37:34;;;;;;;66.40;30.17;;;-4.80;99.90;;;;;;5009958;28;20030;-45
2022/12/17 16:40:00;;;;;;;68.00;32.03;;;-4.70;99.90;;;;;;5009622;28;20452;-50
2022/12/17 16:42:25;;;;;;;66.43;30.15;;;-4.70;99.90;;;;;;5008902;28;20504;-49
2022/12/17 16:44:51;;;;;;;65.43;30.83;;;-4.60;99.90;;;;;;5009208;28;20498;-51
2022/12/17 16:47:16;;;;;;;64.25;31.42;;;-4.50;99.90;;;;;;5009122;28;20101;-47
2022/12/17 16:49:42;;;;;;;64.55;29.52;;;-4.60;99.90;;;;;;5009542;28;20021;-53
2022/12/17 16:52:08;;;;;;;57.85;29.65;;;-4.60;99.90;;;;;;4991155;28;20026;-51
2022/12/17 16:54:33;;;;;;;63.92;28.52;;;-4.60;99.90;;;;;;5009535;28;20025;-47
2022/12/17 16:57:00;;;;;;;55.75;29.58;;;-4.60;99.90;;;;;;4991477;28;20038;-48
2022/12/17 16:59:25;;;;;;;53.53;29.15;;;-4.60;99.90;;;;;;5008223;28;20056;-45
2022/12/17 17:01:51;;;;;;;58.10;27.83;;;-4.50;99.90;;;;;;5009102;28;20073;-53
2022/12/17 17:04:20;;;;;;;67.18;29.13;;;-4.60;99.90;;;;;;5009036;28;20030;-46
2022/12/17 17:06:51;;;;;;;57.78;27.80;;;-4.60;99.90;;;;;;4991538;28;20033;-49
2022/12/17 17:09:18;;;;;;;55.13;27.48;;;-4.70;99.90;;;;;;5009066;28;20033;-50
2022/12/17 17:11:43;;;;;;;56.33;28.00;;;-4.60;99.90;;;;;;4990816;28;20073;-52
2022/12/17 17:14:09;;;;;;;55.50;27.25;;;-4.60;99.90;;;;;;4990531;28;20061;-52
2022/12/17 17:16:35;;;;;;;60.50;26.73;;;-4.60;99.90;;;;;;5008749;28;20075;-50
2022/12/17 17:19:03;;;;;;;64.35;29.77;;;-4.60;99.90;;;;;;5009059;28;20030;-50
2022/12/17 17:21:33;;;;;;;62.60;30.33;;;-4.60;99.90;;;;;;5009178;28;20029;-45
2022/12/17 17:24:03;;;;;;;57.67;28.85;;;-4.70;99.90;;;;;;5007979;28;20033;-50
2022/12/17 17:26:33;;;;;;;65.90;29.13;;;-4.80;99.90;;;;;;5008685;28;20040;-49
2022/12/17 17:28:59;;;;;;;70.93;32.40;;;-4.70;99.90;;;;;;4991823;28;20129;-44
2022/12/17 17:31:25;;;;;;;69.75;29.58;;;-4.80;99.90;;;;;;5008437;28;20494;-49
2022/12/17 17:33:51;;;;;;;59.90;28.50;;;-4.90;99.90;;;;;;5007631;28;20037;-47
2022/12/17 17:36:23;;;;;;;66.97;29.67;;;-5.00;99.90;;;;;;5010328;28;20029;-44
2022/12/17 17:38:50;;;;;;;55.67;28.00;;;-5.00;99.90;;;;;;5009059;28;20022;-48
2022/12/17 17:41:19;;;;;;;77.80;31.88;;;-5.10;99.90;;;;;;5008775;28;20375;-48
2022/12/17 17:43:45;;;;;;;74.53;31.58;;;-5.10;99.90;;;;;;5007961;28;20103;-49
2022/12/17 17:46:12;;;;;;;62.03;30.50;;;-5.10;99.90;;;;;;5008553;28;20082;-49
2022/12/17 17:48:38;;;;;;;73.65;31.40;;;-5.10;99.90;;;;;;4990743;28;20018;-48
2022/12/17 17:51:11;;;;;;;73.18;31.02;;;-5.10;99.90;;;;;;5009195;28;20100;-49
2022/12/17 17:53:37;;;;;;;64.47;29.98;;;-5.00;99.90;;;;;;5008162;28;20079;-48
2022/12/17 17:56:06;;;;;;;67.03;29.40;;;-5.00;99.90;;;;;;4991112;28;20466;-47
2022/12/17 17:58:33;;;;;;;73.03;32.05;;;-5.00;99.90;;;;;;5008859;28;20223;-51
2022/12/17 18:00:59;;;;;;;79.07;32.22;;;-4.90;99.90;;;;;;5009464;28;20040;-51
2022/12/17 18:03:27;;;;;;;61.70;30.10;;;-4.90;99.90;;;;;;5007424;28;20121;-49
2022/12/17 18:05:53;;;;;;;67.38;31.00;;;-4.70;99.90;;;;;;5007930;28;20041;-51
2022/12/17 18:08:18;;;;;;;69.82;30.25;;;-4.70;99.90;;;;;;4990364;28;20026;-51
2022/12/17 18:10:54;;;;;;;76.72;32.67;;;-4.60;99.90;;;;;;5007923;28;20095;-49
2022/12/17 18:16:04;;;;;;;70.30;30.98;;;-4.60;99.90;;;;;;5008483;28;20136;-50
2022/12/17 18:18:29;;;;;;;69.25;30.65;;;-4.70;99.90;;;;;;5007973;28;20054;-52
2022/12/17 18:21:04;;;;;;;80.72;30.98;;;-4.70;99.90;;;;;;4990261;28;20030;-50
2022/12/17 18:23:29;;;;;;;72.53;31.25;;;-4.70;99.90;;;;;;5007210;28;20101;-47
2022/12/17 18:25:55;;;;;;;70.45;31.02;;;-4.80;99.90;;;;;;5007908;28;20034;-52
2022/12/17 18:28:20;;;;;;;70.20;31.98;;;-4.80;99.90;;;;;;5007691;28;20030;-51
2022/12/17 18:30:46;;;;;;;81.40;29.15;;;-4.80;99.90;;;;;;4990416;28;20029;-49
2022/12/17 18:33:11;;;;;;;80.65;30.85;;;-5.00;99.90;;;;;;5007614;28;20385;-46
2022/12/17 18:35:37;;;;;;;87.75;31.95;;;-5.00;99.90;;;;;;4989931;28;20026;-50
2022/12/17 18:38:02;;;;;;;101.53;36.38;;;-5.10;99.90;;;;;;5007890;28;20100;-51
2022/12/17 18:40:28;;;;;;;110.40;34.58;;;-5.20;99.90;;;;;;5008453;28;20141;-51
2022/12/17 18:45:37;;;;;;;82.40;33.85;;;-5.30;99.90;;;;;;5008160;28;20452;-52
2022/12/17 18:48:04;;;;;;;75.07;34.58;;;-5.30;99.90;;;;;;4990057;28;20113;-52
2022/12/17 18:50:29;;;;;;;71.57;30.63;;;-5.30;99.90;;;;;;5007844;28;20486;-54
2022/12/17 18:52:55;;;;;;;80.55;32.97;;;-5.20;99.90;;;;;;5007261;28;20030;-55
2022/12/17 18:55:20;;;;;;;73.78;32.00;;;-5.10;99.90;;;;;;5008032;28;20038;-52
2022/12/17 18:57:46;;;;;;;67.80;31.45;;;-5.10;99.90;;;;;;5007977;28;20022;-48
2022/12/17 19:00:12;;;;;;;73.95;33.28;;;-5.10;99.90;;;;;;5007628;28;20036;-50
2022/12/17 19:02:38;;;;;;;74.03;32.58;;;-5.00;99.90;;;;;;5024236;23;20117;-57
2022/12/17 19:05:03;;;;;;;79.13;32.10;;;-5.10;99.90;;;;;;4987546;28;20121;-50
2022/12/17 19:07:29;;;;;;;82.88;36.00;;;-5.10;99.90;;;;;;4989145;28;20027;-47
2022/12/17 19:09:54;;;;;;;78.95;32.80;;;-5.20;99.90;;;;;;4988604;28;20030;-45
2022/12/17 19:12:20;;;;;;;69.10;32.65;;;-5.10;99.90;;;;;;4990389;28;20022;-51
2022/12/17 19:14:46;;;;;;;88.80;36.13;;;-5.20;99.90;;;;;;5023748;28;20084;-58
2022/12/17 19:17:11;;;;;;;77.45;32.38;;;-5.10;99.90;;;;;;5008180;28;20498;-56
2022/12/17 19:19:37;;;;;;;92.07;39.55;;;-5.10;99.90;;;;;;5008643;28;20049;-55
2022/12/17 19:22:02;;;;;;;70.95;33.30;;;-5.10;99.90;;;;;;5006948;28;20030;-54
2022/12/17 19:24:28;;;;;;;77.97;34.05;;;-5.20;99.90;;;;;;5010040;28;20034;-52
2022/12/17 19:26:53;;;;;;;69.25;31.27;;;-5.20;99.90;;;;;;5011609;28;20470;-54
2022/12/17 19:29:20;;;;;;;86.20;34.10;;;-5.30;99.90;;;;;;5010847;28;20033;-58
2022/12/17 19:31:45;;;;;;;141.18;35.58;;;-5.40;99.90;;;;;;5010803;28;20076;-51
2022/12/17 19:34:14;;;;;;;84.80;33.92;;;-5.40;99.90;;;;;;5010184;28;20065;-53
2022/12/17 19:36:41;;;;;;;92.30;33.97;;;-5.50;99.90;;;;;;5011963;28;20032;-57
2022/12/17 19:39:09;;;;;;;93.63;38.00;;;-5.60;99.90;;;;;;5010226;28;20029;-55
2022/12/17 19:41:35;;;;;;;94.60;35.28;;;-5.60;99.90;;;;;;5011140;28;20115;-51
2022/12/17 19:44:03;;;;;;;82.43;34.17;;;-5.60;99.90;;;;;;5008973;28;20128;-54
2022/12/17 19:46:30;;;;;;;79.45;34.83;;;-5.60;99.90;;;;;;5010793;28;20071;-52
2022/12/17 19:48:56;;;;;;;86.65;35.40;;;-5.60;99.90;;;;;;5011420;28;20065;-54
2022/12/17 19:51:23;;;;;;;89.13;33.58;;;-5.60;99.90;;;;;;5011218;28;20076;-57
2022/12/17 19:53:50;;;;;;;82.20;34.45;;;-5.40;99.90;;;;;;5010101;28;20022;-54
2022/12/17 19:56:21;;;;;;;94.15;36.63;;;-5.50;99.90;;;;;;5011821;28;20465;-57
2022/12/17 19:58:51;;;;;;;78.68;35.30;;;-5.40;99.90;;;;;;5009233;28;20026;-53
2022/12/17 20:01:41;;;;;;;84.18;31.48;;;-5.40;99.90;;;;;;5011007;28;20092;-50
2022/12/17 20:04:08;;;;;;;78.82;32.08;;;-5.30;99.90;;;;;;5010015;28;20670;-56
2022/12/17 20:06:34;;;;;;;72.85;32.10;;;-5.40;99.90;;;;;;5009341;28;20034;-55
2022/12/17 20:09:01;;;;;;;73.50;32.60;;;-5.30;99.90;;;;;;5010510;28;20037;-49
2022/12/17 20:11:32;;;;;;;85.13;34.55;;;-5.30;99.90;;;;;;5008741;28;20026;-57
2022/12/17 20:14:20;;;;;;;83.85;33.25;;;-5.30;99.90;;;;;;5009574;28;20057;-54
2022/12/17 20:16:51;;;;;;;67.47;29.33;;;-5.30;99.90;;;;;;5010397;28;20037;-53
2022/12/17 20:19:20;;;;;;;81.88;32.72;;;-5.30;99.90;;;;;;5010257;28;20144;-53
2022/12/17 20:21:46;;;;;;;69.10;31.38;;;-5.20;99.90;;;;;;5009918;28;20033;-52
2022/12/17 20:24:13;;;;;;;70.82;31.30;;;-5.20;99.90;;;;;;5009204;28;20072;-56
2022/12/17 20:26:39;;;;;;;80.93;35.33;;;-5.20;99.90;;;;;;5010178;28;20336;-54
2022/12/17 20:29:05;;;;;;;69.20;30.52;;;-5.20;99.90;;;;;;5008993;28;20406;-59
2022/12/17 20:31:31;;;;;;;65.32;30.50;;;-5.30;99.90;;;;;;5010354;28;20026;-50
2022/12/17 20:33:59;;;;;;;69.15;30.35;;;-5.30;99.90;;;;;;5008581;28;20040;-55
2022/12/17 20:36:25;;;;;;;72.82;30.95;;;-5.30;99.90;;;;;;5009921;28;20512;-57
2022/12/17 20:38:50;;;;;;;67.85;29.92;;;-5.30;99.90;;;;;;5025228;28;20486;-52
2022/12/17 20:41:21;;;;;;;73.53;31.73;;;-5.30;99.90;;;;;;5010070;28;20444;-53
2022/12/17 20:43:48;;;;;;;70.43;31.42;;;-5.30;99.90;;;;;;5007872;28;20482;-52
2022/12/17 20:46:15;;;;;;;66.30;29.83;;;-5.40;99.90;;;;;;5009820;28;20092;-52
2022/12/17 20:48:42;;;;;;;74.40;31.48;;;-5.50;99.90;;;;;;5009530;28;20037;-54
2022/12/17 20:51:10;;;;;;;70.70;30.30;;;-5.60;99.90;;;;;;5008203;28;20445;-54
2022/12/17 20:53:36;;;;;;;77.38;30.75;;;-5.60;99.90;;;;;;5008691;28;20030;-55
2022/12/17 20:56:17;;;;;;;62.25;27.80;;;-5.60;99.90;;;;;;5009688;28;20038;-55
2022/12/17 20:58:42;;;;;;;61.85;28.30;;;-5.60;99.90;;;;;;5009278;28;20405;-54
2022/12/17 21:01:13;;;;;;;63.80;28.10;;;-5.70;99.90;;;;;;5008442;28;20029;-51
2022/12/17 21:03:39;;;;;;;65.68;29.80;;;-5.60;99.90;;;;;;5008730;28;20083;-56
2022/12/17 21:06:09;;;;;;;75.53;31.48;;;-5.40;99.90;;;;;;5009772;28;20066;-58
2022/12/17 21:08:35;;;;;;;61.97;28.25;;;-5.50;99.90;;;;;;5009346;28;20516;-58
2022/12/17 21:11:01;;;;;;;64.65;27.70;;;-5.60;99.90;;;;;;5009486;28;20026;-58
2022/12/17 21:13:29;;;;;;;60.42;29.13;;;-5.70;99.90;;;;;;5008437;28;20032;-54
2022/12/17 21:15:57;;;;;;;70.25;28.42;;;-5.70;99.90;;;;;;5008058;28;20025;-49
2022/12/17 21:18:23;;;;;;;63.33;27.42;;;-5.70;99.90;;;;;;5007725;28;20508;-58
2022/12/17 21:21:07;;;;;;;67.25;26.92;;;-5.70;99.90;;;;;;5009312;28;20079;-56
2022/12/17 21:23:34;;;;;;;59.47;25.80;;;-5.70;99.90;;;;;;5006447;28;20510;-56
2022/12/17 21:26:04;;;;;;;57.30;28.77;;;-5.90;99.90;;;;;;5009184;28;20405;-56
2022/12/17 21:28:31;;;;;;;58.65;25.73;;;-6.00;99.90;;;;;;5009315;28;20410;-53
2022/12/17 21:30:57;;;;;;;63.70;28.65;;;-6.10;99.90;;;;;;5009240;28;20057;-53
2022/12/17 21:33:23;;;;;;;61.72;29.38;;;-6.00;99.90;;;;;;5006992;28;20040;-56
2022/12/17 21:35:48;;;;;;;66.43;28.70;;;-6.10;99.90;;;;;;5008652;28;20041;-49
2022/12/17 21:38:14;;;;;;;64.13;28.50;;;-6.10;99.90;;;;;;5009023;28;20505;-57
2022/12/17 21:40:40;;;;;;;66.50;28.98;;;-6.10;99.90;;;;;;5009107;28;20451;-50
2022/12/17 21:43:06;;;;;;;65.00;27.10;;;-6.10;99.90;;;;;;5007920;28;20084;-54
2022/12/17 21:45:36;;;;;;;61.85;27.75;;;-6.10;99.90;;;;;;5008274;28;20111;-54
2022/12/17 21:48:03;;;;;;;61.60;28.65;;;-6.10;99.90;;;;;;5008614;28;20105;-51
2022/12/17 21:50:31;;;;;;;68.63;28.42;;;-6.10;99.90;;;;;;5007732;28;20030;-56
2022/12/17 21:52:58;;;;;;;66.65;28.75;;;-6.10;99.90;;;;;;5007165;28;20560;-53
2022/12/17 21:55:23;;;;;;;62.13;26.85;;;-6.00;99.90;;;;;;5008831;28;20494;-53
2022/12/17 21:57:49;;;;;;;66.28;29.02;;;-5.90;99.90;;;;;;5007471;28;20040;-48
2022/12/17 22:00:15;;;;;;;60.78;27.88;;;-6.00;99.90;;;;;;5008067;28;20087;-51
2022/12/17 22:02:41;;;;;;;67.50;29.27;;;-6.00;99.90;;;;;;5007639;28;20065;-52
2022/12/17 22:05:07;;;;;;;64.78;27.63;;;-6.00;99.90;;;;;;5008488;28;20061;-50
2022/12/17 22:07:32;;;;;;;67.13;28.98;;;-6.10;99.90;;;;;;5007018;28;20041;-52
2022/12/17 22:09:58;;;;;;;66.57;27.52;;;-6.30;99.90;;;;;;5007989;28;20512;-48
2022/12/17 22:15:09;;;;;;;67.20;25.92;;;-6.30;99.90;;;;;;5008729;28;20036;-52
2022/12/17 22:17:36;;;;;;;62.92;29.17;;;-6.40;99.90;;;;;;5008595;28;20029;-52
2022/12/17 22:20:02;;;;;;;68.88;30.35;;;-6.50;99.90;;;;;;5007511;28;20553;-51
2022/12/17 22:22:27;;;;;;;64.60;27.52;;;-6.50;99.90;;;;;;5007504;28;20037;-54
2022/12/17 22:24:53;;;;;;;66.80;29.85;;;-6.60;99.90;;;;;;5008486;28;20042;-48
2022/12/17 22:27:18;;;;;;;65.53;29.55;;;-6.50;99.90;;;;;;5008181;28;20139;-53
2022/12/17 22:35:12;;;;;;;64.85;28.80;;;-6.50;99.90;;;;;;5007747;28;20048;-54
2022/12/17 22:37:38;;;;;;;67.90;27.77;;;-6.40;99.90;;;;;;5008061;28;20491;-49
2022/12/17 22:40:04;;;;;;;68.22;28.42;;;-6.40;99.90;;;;;;5008200;28;20041;-54
2022/12/17 22:45:13;;;;;;;67.30;27.70;;;-6.40;99.90;;;;;;5008146;28;20069;-55
2022/12/17 22:47:39;;;;;;;77.88;31.45;;;-6.40;99.90;;;;;;5007676;28;20033;-47
2022/12/17 22:50:05;;;;;;;67.65;29.35;;;-6.50;99.90;;;;;;5007767;28;20022;-55
2022/12/17 22:52:30;;;;;;;67.38;27.27;;;-6.50;99.90;;;;;;5005558;28;20053;-53
2022/12/17 22:54:56;;;;;;;61.55;26.25;;;-6.40;99.90;;;;;;5009055;28;20030;-51
2022/12/17 22:57:22;;;;;;;65.75;29.77;;;-6.40;99.90;;;;;;5010978;28;20033;-54
2022/12/17 22:59:47;;;;;;;63.92;27.33;;;-6.40;99.90;;;;;;5012415;28;20030;-52
2022/12/17 23:02:13;;;;;;;72.28;31.10;;;-6.40;99.90;;;;;;5012512;28;20549;-54
2022/12/17 23:04:38;;;;;;;67.07;29.88;;;-6.50;99.90;;;;;;5015223;28;20092;-53
2022/12/17 23:07:04;;;;;;;70.88;30.67;;;-6.60;99.90;;;;;;5013692;28;20041;-49
2022/12/17 23:09:29;;;;;;;136.57;56.50;;;-6.60;99.90;;;;;;5030641;28;20029;-51
2022/12/17 23:11:55;;;;;;;72.25;28.45;;;-6.70;99.90;;;;;;5013119;28;20034;-51
2022/12/17 23:14:20;;;;;;;62.05;25.75;;;-6.70;99.90;;;;;;5015073;28;20030;-49
2022/12/17 23:16:46;;;;;;;63.65;27.45;;;-6.60;99.90;;;;;;5015153;28;20104;-51
2022/12/17 23:19:12;;;;;;;62.38;27.92;;;-6.70;99.90;;;;;;5015050;28;20112;-47
2022/12/17 23:21:38;;;;;;;67.60;27.35;;;-6.60;99.90;;;;;;5014959;28;20034;-56
2022/12/17 23:24:04;;;;;;;73.28;30.95;;;-6.70;99.90;;;;;;5013862;28;20033;-49
2022/12/17 23:26:33;;;;;;;70.60;31.05;;;-6.70;99.90;;;;;;5014534;28;20026;-55
2022/12/17 23:29:02;;;;;;;66.63;28.05;;;-6.60;99.90;;;;;;5014829;28;20125;-58
2022/12/17 23:31:32;;;;;;;65.60;27.98;;;-6.60;99.90;;;;;;5014815;28;20478;-55
2022/12/17 23:33:58;;;;;;;71.38;30.13;;;-6.60;99.90;;;;;;5014119;28;20084;-50
2022/12/17 23:36:24;;;;;;;57.10;28.33;;;-6.60;99.90;;;;;;5014651;28;20021;-52
2022/12/17 23:38:51;;;;;;;73.63;27.08;;;-6.50;99.90;;;;;;5013316;28;20026;-51
2022/12/17 23:41:19;;;;;;;76.63;29.90;;;-6.40;99.90;;;;;;5014993;28;20076;-53
2022/12/17 23:43:46;;;;;;;70.45;29.85;;;-6.30;99.90;;;;;;5013566;28;20033;-51
2022/12/17 23:46:12;;;;;;;61.00;26.23;;;-6.40;99.90;;;;;;5014390;28;20410;-51
2022/12/17 23:48:40;;;;;;;62.80;28.25;;;-6.50;99.90;;;;;;5014496;28;20034;-53
2022/12/17 23:51:07;;;;;;;62.22;27.27;;;-6.50;99.90;;;;;;5014265;28;20045;-53
2022/12/17 23:53:34;;;;;;;61.10;27.55;;;-6.60;99.90;;;;;;5013464;28;20029;-54
2022/12/17 23:56:08;;;;;;;66.25;28.33;;;-6.70;99.90;;;;;;5014529;28;20485;-52
2022/12/17 23:58:35;;;;;;;57.75;26.17;;;-6.70;99.90;;;;;;5014036;28;20026;-52
